Main page
METAR-TAF:

METAR-TAF

Airports :

Las Vegas Municipal Airport

Las Vegas, New Mexico, United States

latitude: 35-39-15N, longitude: 105-08-33W, elevation: 6875 ft

Current weather observation

The report was made 27 minutes ago, at 16:53 UTC
Wind 12 mph from the South
Temperature 72°F
Humidity 53%
Pressure 30.17 in. Hg
Visibility: 10 miles
Clear sky

METAR: KLVS 151653Z AUTO 19010KT 10SM CLR 22/12 A3017 RMK AO2 SLP111 T02170117

Time: 11:20 (17:20 UTC)

Forecast

The report was made 5 hours and 16 minutes ago, at 12:04 UTC
Forecast valid from 15 at 12 UTC to 16 at 12 UTC
Wind 14 mph from the South/Southwest
Visibility: 6 miles
Few clouds at a height of 5000 ft
From 15 at 2100 UTC
Wind 14 mph from the South/Southwest with gusts up to 25 mph
Visibility: 6 miles
Scattered clouds at a height of 10000 ft
From 16 at 0300 UTC
Wind 9 mph from the South
Visibility: 6 miles
Few clouds at a height of 12000 ft

TAF: KLVS 151204Z 1512/1612 21012KT P6SM FEW050 FM152100 20012G22KT P6SM SCT100 FM160300 19008KT P6SM FEW120

Weather observations and forecasts of more than 4000 airports (METAR and TAF reports).

The available stations are represented by yellow and red dots on the map.

Hover mouse over dot to see the name of the station.

Then click to see weather observations and forecasts.

To change the map : click on the green buttons with a black cross to zoom in, on the green button with a dash to zoom out, or on the green arrows for adjacent maps.


METAR-TAF: